الصفحة الرئيسية
METAR-TAF:

METAR-TAF

مطار :

فلاديفوستوك, روسيا

دائرة عرض: 43-07N, خط طول: 131-56E, ارتفاع: 184 متر

مراقبة الطقس الحالي

تاريخ ووقت الإصدار 33 دقيقة قبل الساعة 00:30UTC
ريح 8 عقدة من الشمال, الاتجاه يتراوح بين الشمال الغربي و الشمال/الشمال الشرقي
درجة الحرارة 22°درجة مئوية
الرطوبة 60%
ضغط 1004 hPa
الرؤية 10 كم أو أكثر

METAR: UHWW 240030Z 35004MPS 310V030 9999 NSC 22/14 Q1004 R25L/0///70 NOSIG RMK QFE752

زمن: 11:03 (01:03 UTC)

توقعات

تاريخ ووقت الإصدار 2ساعات و 8 دقيقة قبل الساعة 22:55UTC
التوقعات صالحة من24 الساعة 00 UTC إلى 24 الساعة 24 UTC
ريح 6 عقدة من الشمال
الرؤية 10 كم أو أكثر
غيوم متفرقة على ارتفاع 3000 قدم
مؤقت
من 24 الساعة 02 UTC إلى 24 الساعة 10 UTC
الرؤية: 5000 متر
غيوم مفككة على ارتفاع 2500 قدم, مزنة ركامية.
زخات من الأمطار الخفيفة
أصبح
من 24 الساعة 10 UTC إلى 24 الساعة 12 UTC
ريح 2 عقدةمن اتجاهات متغيرة

TAF: UHWW 232255Z 2400/2424 36003MPS 9999 SCT030 TEMPO 2402/2410 5000 -SHRA BKN025CB BECMG 2410/2412 VRB01MPS NSC

أرصاد الطقس والتوقعات من أكثر من 4000 مطار (تقارير الطقس للمطار METAR والتنبؤ بالطقس بالمطارTAF).

المحطات المتاحة هي النقط الصفراء والحمراء على الخريطة.

حرك المؤشر فوق النقطة لمعرفة اسم المحطة.

ثم انقر لمعرفة أرصاد وتوقعات الطقس.

لتغيير الخارطة: اضغط على الأزرار الخضراء مع رمز الصليب الأسود للتكبير. على الزر الأخضر مع شرطة للتصغير، أو على الأسهم الخضراء للخرائط المجاورة.


METAR-TAF: